createdAt,value
2018-09-09T00:01:29.907Z,99468.41
2018-09-09T00:04:04.813Z,99463.86
2018-09-09T00:06:39.485Z,99459.84
2018-09-09T00:09:21.370Z,99456.36
2018-09-09T00:11:56.252Z,99460.85
2018-09-09T00:14:31.117Z,99472.66
2018-09-09T00:17:05.597Z,99463.27
2018-09-09T00:19:40.204Z,99466.16
2018-09-09T00:22:14.905Z,99460.08
2018-09-09T00:24:49.567Z,99456.74
2018-09-09T00:27:24.128Z,99454.73
2018-09-09T00:29:58.732Z,99447.47
2018-09-09T00:32:33.345Z,99449.16
2018-09-09T00:35:07.802Z,99456.11
2018-09-09T00:37:43.197Z,99454.58
2018-09-09T00:40:17.684Z,99446.47
2018-09-09T00:42:52.452Z,99449.20
2018-09-09T00:45:27.119Z,99458.36
2018-09-09T00:48:01.685Z,99450.33
2018-09-09T00:50:41.626Z,99434.81
2018-09-09T00:53:21.653Z,99443.66
2018-09-09T00:55:56.268Z,99453.69
2018-09-09T00:58:30.771Z,99447.33
2018-09-09T01:01:10.657Z,99447.66
2018-09-09T01:03:46.441Z,99455.30
2018-09-09T01:06:21.057Z,99451.84
2018-09-09T01:08:55.581Z,99448.78
2018-09-09T01:11:30.179Z,99448.78
2018-09-09T01:14:04.965Z,99436.66
2018-09-09T01:16:39.641Z,99439.31
2018-09-09T01:19:14.232Z,99439.16
2018-09-09T01:21:49.035Z,99434.98
2018-09-09T01:24:23.727Z,99419.66
2018-09-09T01:26:58.988Z,99415.75
2018-09-09T01:29:33.340Z,99402.81
2018-09-09T01:32:07.973Z,99391.00
2018-09-09T01:34:42.596Z,99409.41
2018-09-09T01:37:17.093Z,99432.71
2018-09-09T01:39:51.890Z,99446.23
2018-09-09T01:42:26.496Z,99453.06
2018-09-09T01:45:00.935Z,99451.77
2018-09-09T01:47:35.645Z,99451.45
2018-09-09T01:50:10.261Z,99449.67
2018-09-09T01:52:44.808Z,99459.23
2018-09-09T01:55:19.383Z,99466.69
2018-09-09T01:57:54.104Z,99463.52
2018-09-09T02:00:28.789Z,99455.16
2018-09-09T02:03:03.600Z,99463.98
2018-09-09T02:05:38.320Z,99460.94
2018-09-09T02:08:12.945Z,99462.91
2018-09-09T02:10:47.452Z,99459.23
2018-09-09T02:13:22.084Z,99468.30
2018-09-09T02:15:56.682Z,99463.56
2018-09-09T02:18:31.372Z,99464.45
2018-09-09T02:21:06.101Z,99463.80
2018-09-09T02:23:40.527Z,99462.44
2018-09-09T02:26:15.206Z,99458.19
2018-09-09T02:28:49.868Z,99453.70
2018-09-09T02:31:24.436Z,99457.22
2018-09-09T02:33:58.916Z,99451.52
2018-09-09T02:36:33.451Z,99450.81
2018-09-09T02:39:09.061Z,99452.73
2018-09-09T02:41:43.742Z,99452.64
2018-09-09T02:44:18.305Z,99452.40
2018-09-09T02:46:53.025Z,99455.13
2018-09-09T02:49:27.605Z,99457.40
2018-09-09T02:52:02.500Z,99460.77
2018-09-09T02:54:37.220Z,99467.52
2018-09-09T02:57:11.801Z,99464.53
2018-09-09T02:59:46.385Z,99459.95
2018-09-09T03:02:20.872Z,99448.70
2018-09-09T03:04:55.516Z,99441.89
2018-09-09T03:07:30.115Z,99452.20
2018-09-09T03:10:04.940Z,99463.14
2018-09-09T03:12:39.426Z,99463.34
2018-09-09T03:15:14.049Z,99457.47
2018-09-09T03:17:48.669Z,99466.95
2018-09-09T03:20:23.413Z,99455.61
2018-09-09T03:22:58.116Z,99472.48
2018-09-09T03:25:33.305Z,99478.91
2018-09-09T03:28:08.009Z,99465.50
2018-09-09T03:30:42.640Z,99437.42
2018-09-09T03:33:18.101Z,99431.59
2018-09-09T03:35:52.769Z,99447.28
2018-09-09T03:38:27.313Z,99440.20
2018-09-09T03:41:01.866Z,99403.64
2018-09-09T03:43:36.517Z,99418.86
2018-09-09T03:46:10.849Z,99454.42
2018-09-09T03:48:45.432Z,99459.64
2018-09-09T03:51:20.130Z,99458.11
2018-09-09T03:53:54.819Z,99459.23
2018-09-09T03:56:29.500Z,99456.83
2018-09-09T03:59:04.299Z,99454.97
2018-09-09T04:01:39.131Z,99444.05
2018-09-09T04:04:13.848Z,99443.02
2018-09-09T04:06:48.589Z,99446.74
2018-09-09T04:09:23.252Z,99456.79
2018-09-09T04:11:57.953Z,99467.23
2018-09-09T04:14:32.496Z,99455.66
2018-09-09T04:17:07.209Z,99453.84
2018-09-09T04:19:41.668Z,99453.45
2018-09-09T04:22:16.189Z,99444.36
2018-09-09T04:24:50.785Z,99445.48
2018-09-09T04:27:25.334Z,99441.39
2018-09-09T04:30:00.081Z,99449.27
2018-09-09T04:32:34.557Z,99440.34
2018-09-09T04:35:09.072Z,99422.34
2018-09-09T04:37:43.569Z,99420.70
2018-09-09T04:40:18.165Z,99430.40
2018-09-09T04:42:52.849Z,99440.12
2018-09-09T04:45:27.516Z,99447.59
2018-09-09T04:48:02.040Z,99432.89
2018-09-09T04:50:36.634Z,99439.80
2018-09-09T04:53:11.561Z,99454.73
2018-09-09T04:55:46.244Z,99457.62
2018-09-09T04:58:20.813Z,99451.43
2018-09-09T05:00:55.285Z,99447.02
2018-09-09T05:03:29.721Z,99438.99
2018-09-09T05:06:04.325Z,99446.06
2018-09-09T05:08:38.789Z,99467.11
2018-09-09T05:11:13.461Z,99465.74
2018-09-09T05:13:48.264Z,99476.27
2018-09-09T05:16:22.752Z,99470.72
2018-09-09T05:18:57.221Z,99475.14
2018-09-09T05:21:31.813Z,99476.50
2018-09-09T05:24:06.380Z,99482.53
2018-09-09T05:26:40.940Z,99478.44
2018-09-09T05:29:15.430Z,99487.69
2018-09-09T05:31:49.845Z,99487.85
2018-09-09T05:34:24.228Z,99482.14
2018-09-09T05:36:59.422Z,99471.45
2018-09-09T05:39:33.974Z,99466.86
2018-09-09T05:42:08.724Z,99458.52
2018-09-09T05:44:43.522Z,99470.16
2018-09-09T05:47:18.120Z,99476.48
2018-09-09T05:49:52.890Z,99482.19
2018-09-09T05:52:27.533Z,99493.79
2018-09-09T05:55:02.117Z,99511.88
2018-09-09T05:57:37.449Z,99513.16
2018-09-09T06:00:12.017Z,99511.63
2018-09-09T06:02:46.738Z,99508.34
2018-09-09T06:05:21.428Z,99504.89
2018-09-09T06:07:55.970Z,99503.36
2018-09-09T06:10:30.676Z,99506.49
2018-09-09T06:13:05.647Z,99507.30
2018-09-09T06:15:40.308Z,99505.32
2018-09-09T06:18:14.704Z,99502.02
2018-09-09T06:20:49.337Z,99509.49
2018-09-09T06:23:23.807Z,99517.05
2018-09-09T06:25:58.422Z,99514.31
2018-09-09T06:28:33.044Z,99523.84
2018-09-09T06:31:07.776Z,99523.41
2018-09-09T06:33:42.398Z,99532.05
2018-09-09T06:36:16.940Z,99533.65
2018-09-09T06:38:51.575Z,99529.62
2018-09-09T06:41:25.961Z,99531.38
2018-09-09T06:44:00.449Z,99530.40
2018-09-09T06:46:35.115Z,99532.97
2018-09-09T06:49:09.640Z,99538.03
2018-09-09T06:51:44.338Z,99536.02
2018-09-09T06:54:18.841Z,99535.30
2018-09-09T06:56:53.604Z,99527.98
2018-09-09T06:59:28.133Z,99533.95
2018-09-09T07:02:02.746Z,99526.55
2018-09-09T07:04:37.228Z,99527.38
2018-09-09T07:07:11.921Z,99527.47
2018-09-09T07:09:46.689Z,99527.58
2018-09-09T07:12:21.292Z,99529.63
2018-09-09T07:14:55.800Z,99524.55
2018-09-09T07:17:30.225Z,99534.00
2018-09-09T07:20:04.740Z,99528.62
2018-09-09T07:22:39.280Z,99529.92
2018-09-09T07:25:13.833Z,99534.81
2018-09-09T07:27:48.342Z,99528.66
2018-09-09T07:30:22.885Z,99528.45
2018-09-09T07:32:57.386Z,99535.48
2018-09-09T07:35:31.837Z,99538.32
2018-09-09T07:38:06.273Z,99544.27
2018-09-09T07:40:40.921Z,99548.16
2018-09-09T07:43:15.468Z,99554.24
2018-09-09T07:45:49.955Z,99553.06
2018-09-09T07:48:24.518Z,99560.92
2018-09-09T07:50:59.140Z,99565.16
2018-09-09T07:53:33.689Z,99562.55
2018-09-09T07:56:08.361Z,99564.05
2018-09-09T07:58:42.934Z,99563.98
2018-09-09T08:01:17.545Z,99570.86
2018-09-09T08:03:52.132Z,99558.84
2018-09-09T08:06:26.701Z,99562.38
2018-09-09T08:09:01.221Z,99561.98
2018-09-09T08:11:38.527Z,99564.21
2018-09-09T08:14:13.100Z,99563.77
2018-09-09T08:16:47.616Z,99555.17
2018-09-09T08:19:22.080Z,99553.32
2018-09-09T08:21:56.720Z,99554.92
2018-09-09T08:24:31.095Z,99549.28
2018-09-09T08:27:05.532Z,99555.19
2018-09-09T08:29:40.307Z,99557.93
2018-09-09T08:32:14.904Z,99562.22
2018-09-09T08:34:49.421Z,99565.91
2018-09-09T08:37:23.856Z,99557.14
2018-09-09T08:39:58.553Z,99564.23
2018-09-09T08:42:33.217Z,99560.25
2018-09-09T08:45:07.696Z,99562.30
2018-09-09T08:47:42.742Z,99570.30
2018-09-09T08:50:17.202Z,99564.58
2018-09-09T08:52:51.619Z,99570.65
2018-09-09T08:55:26.035Z,99573.50
2018-09-09T08:58:00.408Z,99574.08
2018-09-09T09:00:34.791Z,99584.36
2018-09-09T09:03:09.152Z,99576.66
2018-09-09T09:05:43.480Z,99576.76
2018-09-09T09:08:17.917Z,99576.86
2018-09-09T09:10:52.344Z,99577.86
2018-09-09T09:13:26.712Z,99570.44
2018-09-09T09:16:00.950Z,99577.97
2018-09-09T09:18:35.502Z,99582.00
2018-09-09T09:21:10.033Z,99574.44
2018-09-09T09:23:44.809Z,99580.41
2018-09-09T09:26:19.313Z,99567.16
2018-09-09T09:28:54.089Z,99562.45
2018-09-09T09:31:28.776Z,99563.65
2018-09-09T09:34:03.411Z,99560.98
2018-09-09T09:36:37.972Z,99572.08
2018-09-09T09:39:12.530Z,99570.94
2018-09-09T09:41:47.536Z,99571.48
2018-09-09T09:44:22.052Z,99580.62
2018-09-09T09:46:56.873Z,99579.03
2018-09-09T09:49:31.581Z,99581.55
2018-09-09T09:52:06.245Z,99579.58
2018-09-09T09:54:41.256Z,99573.86
2018-09-09T09:57:15.905Z,99573.41
2018-09-09T09:59:50.716Z,99576.80
2018-09-09T10:02:25.274Z,99579.08
2018-09-09T10:04:59.907Z,99584.14
2018-09-09T10:07:34.835Z,99581.06
2018-09-09T10:10:09.541Z,99581.36
2018-09-09T10:12:44.366Z,99584.81
2018-09-09T10:15:19.057Z,99584.17
2018-09-09T10:17:53.664Z,99579.80
2018-09-09T10:20:28.342Z,99591.12
2018-09-09T10:23:02.864Z,99581.64
2018-09-09T10:25:37.580Z,99588.98
2018-09-09T10:28:12.201Z,99589.61
2018-09-09T10:30:47.124Z,99595.27
2018-09-09T10:33:21.700Z,99591.00
2018-09-09T10:35:56.349Z,99590.09
2018-09-09T10:38:30.833Z,99577.66
2018-09-09T10:41:05.529Z,99584.45
2018-09-09T10:43:40.794Z,99592.07
2018-09-09T10:46:15.421Z,99591.78
2018-09-09T10:48:49.860Z,99585.08
2018-09-09T10:51:24.404Z,99592.29
2018-09-09T10:53:59.020Z,99592.72
2018-09-09T10:56:33.488Z,99586.30
2018-09-09T10:59:08.001Z,99592.64
2018-09-09T11:01:42.456Z,99587.75
2018-09-09T11:04:17.066Z,99586.77
2018-09-09T11:06:51.790Z,99590.37
2018-09-09T11:09:26.300Z,99586.34
2018-09-09T11:12:00.993Z,99589.58
2018-09-09T11:14:35.597Z,99590.69
2018-09-09T11:17:10.116Z,99573.59
2018-09-09T11:19:44.868Z,99569.95
2018-09-09T11:22:19.444Z,99571.40
2018-09-09T11:24:53.867Z,99567.05
2018-09-09T11:27:28.332Z,99572.64
2018-09-09T11:30:03.234Z,99570.74
2018-09-09T11:32:37.553Z,99569.23
2018-09-09T11:35:12.089Z,99561.38
2018-09-09T11:37:47.813Z,99561.16
2018-09-09T11:40:22.467Z,99559.35
2018-09-09T11:42:57.134Z,99557.95
2018-09-09T11:45:31.889Z,99563.12
2018-09-09T11:48:06.528Z,99562.91
2018-09-09T11:50:41.411Z,99564.81
2018-09-09T11:53:15.985Z,99566.19
2018-09-09T11:55:50.412Z,99559.33
2018-09-09T11:58:25.308Z,99558.59
2018-09-09T12:00:59.888Z,99554.90
2018-09-09T12:03:34.476Z,99546.66
2018-09-09T12:06:09.268Z,99558.84
2018-09-09T12:08:43.831Z,99551.37
2018-09-09T12:11:23.524Z,99546.80
2018-09-09T12:13:57.864Z,99545.00
2018-09-09T12:16:32.651Z,99543.80
2018-09-09T12:19:07.264Z,99546.08
2018-09-09T12:21:41.761Z,99537.06
2018-09-09T12:24:16.503Z,99538.77
2018-09-09T12:26:51.048Z,99534.91
2018-09-09T12:29:25.552Z,99539.23
2018-09-09T12:31:59.984Z,99535.25
2018-09-09T12:34:34.830Z,99534.88
2018-09-09T12:37:09.365Z,99531.27
2018-09-09T12:39:44.185Z,99531.27
2018-09-09T12:42:18.945Z,99529.60
2018-09-09T12:44:58.941Z,99530.45
2018-09-09T12:47:38.893Z,99543.30
2018-09-09T12:50:15.277Z,99547.00
2018-09-09T12:52:49.756Z,99538.20
2018-09-09T12:55:24.713Z,99541.13
2018-09-09T12:57:59.356Z,99536.19
2018-09-09T13:00:33.925Z,99536.97
2018-09-09T13:03:08.284Z,99537.52
2018-09-09T13:05:42.929Z,99530.80
2018-09-09T13:08:17.540Z,99532.48
2018-09-09T13:10:52.211Z,99536.19
2018-09-09T13:13:26.881Z,99533.61
2018-09-09T13:16:01.339Z,99531.59
2018-09-09T13:18:36.340Z,99531.71
2018-09-09T13:21:10.828Z,99542.59
2018-09-09T13:23:45.364Z,99546.39
2018-09-09T13:26:19.870Z,99546.82
2018-09-09T13:28:54.492Z,99543.95
2018-09-09T13:31:29.003Z,99538.72
2018-09-09T13:34:03.709Z,99534.36
2018-09-09T13:36:38.344Z,99530.63
2018-09-09T13:39:13.092Z,99530.08
2018-09-09T13:41:47.605Z,99531.64
2018-09-09T13:44:22.177Z,99531.05
2018-09-09T13:46:56.704Z,99533.18
2018-09-09T13:49:31.101Z,99536.34
2018-09-09T13:52:05.621Z,99532.72
2018-09-09T13:54:40.157Z,99525.41
2018-09-09T13:57:14.806Z,99519.56
2018-09-09T13:59:49.308Z,99526.98
2018-09-09T14:02:24.153Z,99532.20
2018-09-09T14:04:58.788Z,99519.89
2018-09-09T14:07:33.332Z,99527.10
2018-09-09T14:10:08.368Z,99522.33
2018-09-09T14:12:43.044Z,99517.45
2018-09-09T14:15:17.729Z,99524.04
2018-09-09T14:17:52.305Z,99517.98
2018-09-09T14:20:26.936Z,99516.31
2018-09-09T14:23:01.507Z,99514.77
2018-09-09T14:25:36.352Z,99512.01
2018-09-09T14:28:10.841Z,99511.09
2018-09-09T14:30:45.456Z,99517.62
2018-09-09T14:33:19.937Z,99513.00
2018-09-09T14:35:54.565Z,99519.86
2018-09-09T14:38:29.222Z,99521.45
2018-09-09T14:41:04.513Z,99514.89
2018-09-09T14:43:39.101Z,99523.03
2018-09-09T14:46:13.734Z,99517.38
2018-09-09T14:48:48.672Z,99511.89
2018-09-09T14:51:23.160Z,99508.80
2018-09-09T14:53:57.800Z,99512.00
2018-09-09T14:56:32.276Z,99512.42
2018-09-09T14:59:07.204Z,99510.72
2018-09-09T15:01:41.709Z,99512.31
2018-09-09T15:04:16.680Z,99516.56
2018-09-09T15:06:51.455Z,99509.09
2018-09-09T15:09:25.894Z,99510.95
2018-09-09T15:12:00.494Z,99500.13
2018-09-09T15:14:34.945Z,99506.69
2018-09-09T15:17:09.525Z,99503.97
2018-09-09T15:19:44.158Z,99502.38
2018-09-09T15:22:18.627Z,99501.78
2018-09-09T15:24:53.254Z,99496.83
2018-09-09T15:27:27.927Z,99496.53
2018-09-09T15:30:02.515Z,99494.48
2018-09-09T15:32:37.188Z,99497.72
2018-09-09T15:35:11.864Z,99495.25
2018-09-09T15:37:46.509Z,99493.36
2018-09-09T15:40:20.994Z,99490.67
2018-09-09T15:42:56.000Z,99491.88
2018-09-09T15:45:30.504Z,99484.52
2018-09-09T15:48:05.177Z,99484.07
2018-09-09T15:50:39.680Z,99488.15
2018-09-09T15:53:14.853Z,99486.56
2018-09-09T15:55:49.409Z,99481.24
2018-09-09T15:58:23.995Z,99485.89
2018-09-09T16:00:58.586Z,99483.72
2018-09-09T16:03:33.032Z,99484.50
2018-09-09T16:06:07.713Z,99481.63
2018-09-09T16:08:42.238Z,99481.73
2018-09-09T16:11:16.888Z,99480.41
2018-09-09T16:13:51.557Z,99480.68
2018-09-09T16:16:26.022Z,99474.45
2018-09-09T16:19:00.743Z,99478.64
2018-09-09T16:21:35.518Z,99480.23
2018-09-09T16:24:10.080Z,99482.50
2018-09-09T16:26:44.692Z,99479.94
2018-09-09T16:29:19.424Z,99485.70
2018-09-09T16:31:53.844Z,99483.52
2018-09-09T16:34:28.600Z,99486.45
2018-09-09T16:37:03.668Z,99478.15
2018-09-09T16:39:38.235Z,99479.20
2018-09-09T16:42:12.928Z,99478.55
2018-09-09T16:44:47.453Z,99489.34
2018-09-09T16:47:21.896Z,99484.98
2018-09-09T16:49:56.468Z,99488.43
2018-09-09T16:52:31.004Z,99481.95
2018-09-09T16:55:05.533Z,99481.00
2018-09-09T16:57:40.160Z,99483.55
2018-09-09T17:00:14.829Z,99484.98
2018-09-09T17:02:49.447Z,99482.69
2018-09-09T17:05:23.918Z,99481.83
2018-09-09T17:07:58.498Z,99481.70
2018-09-09T17:10:33.006Z,99482.61
2018-09-09T17:13:07.646Z,99473.13
2018-09-09T17:15:42.297Z,99475.03
2018-09-09T17:18:16.870Z,99477.65
2018-09-09T17:20:51.497Z,99476.19
2018-09-09T17:23:26.560Z,99471.95
2018-09-09T17:26:01.253Z,99468.25
2018-09-09T17:28:36.088Z,99480.52
2018-09-09T17:31:10.750Z,99472.59
2018-09-09T17:33:45.722Z,99480.47
2018-09-09T17:36:20.331Z,99471.61
2018-09-09T17:38:55.410Z,99477.03
2018-09-09T17:41:30.194Z,99478.81
2018-09-09T17:44:05.292Z,99476.65
2018-09-09T17:46:39.840Z,99480.77
2018-09-09T17:49:14.458Z,99482.39
2018-09-09T17:51:49.105Z,99482.51
2018-09-09T17:54:23.624Z,99485.86
2018-09-09T17:56:58.227Z,99485.59
2018-09-09T17:59:32.919Z,99483.77
2018-09-09T18:02:07.567Z,99486.03
2018-09-09T18:04:42.144Z,99485.34
2018-09-09T18:07:16.568Z,99480.86
2018-09-09T18:09:51.212Z,99479.45
2018-09-09T18:12:25.888Z,99483.64
2018-09-09T18:15:00.560Z,99483.33
2018-09-09T18:17:35.214Z,99485.94
2018-09-09T18:20:09.771Z,99486.47
2018-09-09T18:22:44.270Z,99487.23
2018-09-09T18:25:18.908Z,99493.05
2018-09-09T18:27:53.512Z,99494.02
2018-09-09T18:30:28.085Z,99495.80
2018-09-09T18:33:02.686Z,99486.17
2018-09-09T18:35:37.277Z,99492.41
2018-09-09T18:38:12.072Z,99499.62
2018-09-09T18:40:46.607Z,99493.66
2018-09-09T18:43:21.128Z,99497.17
2018-09-09T18:45:55.786Z,99497.28
2018-09-09T18:48:30.354Z,99490.98
2018-09-09T18:51:05.037Z,99485.70
2018-09-09T18:53:39.608Z,99490.06
2018-09-09T18:56:14.358Z,99492.02
2018-09-09T18:58:49.197Z,99496.52
2018-09-09T19:01:23.776Z,99493.66
2018-09-09T19:03:58.225Z,99501.56
2018-09-09T19:06:32.753Z,99505.23
2018-09-09T19:09:07.428Z,99511.62
2018-09-09T19:11:42.098Z,99503.26
2018-09-09T19:14:16.641Z,99508.30
2018-09-09T19:16:51.249Z,99512.66
2018-09-09T19:19:25.845Z,99513.13
2018-09-09T19:22:00.538Z,99510.72
2018-09-09T19:24:35.120Z,99503.38
2018-09-09T19:27:09.701Z,99499.04
2018-09-09T19:29:44.381Z,99505.89
2018-09-09T19:32:18.801Z,99502.70
2018-09-09T19:34:53.645Z,99510.04
2018-09-09T19:37:28.605Z,99508.67
2018-09-09T19:40:03.233Z,99515.73
2018-09-09T19:42:38.378Z,99514.47
2018-09-09T19:45:12.879Z,99516.34
2018-09-09T19:47:47.489Z,99516.38
2018-09-09T19:50:21.904Z,99517.91
2018-09-09T19:52:56.289Z,99517.11
2018-09-09T19:55:30.816Z,99517.56
2018-09-09T19:58:05.511Z,99523.06
2018-09-09T20:00:40.089Z,99525.92
2018-09-09T20:03:14.680Z,99527.94
2018-09-09T20:05:49.168Z,99524.45
2018-09-09T20:08:23.595Z,99524.03
2018-09-09T20:10:58.130Z,99526.03
2018-09-09T20:13:32.656Z,99519.30
2018-09-09T20:16:07.264Z,99518.23
2018-09-09T20:18:41.816Z,99524.62
2018-09-09T20:21:16.312Z,99526.83
2018-09-09T20:23:50.813Z,99521.01
2018-09-09T20:26:25.440Z,99523.00
2018-09-09T20:28:59.933Z,99525.28
2018-09-09T20:31:34.584Z,99529.81
2018-09-09T20:34:09.243Z,99527.31
2018-09-09T20:36:43.849Z,99536.21
2018-09-09T20:39:18.430Z,99528.54
2018-09-09T20:41:53.068Z,99536.77
2018-09-09T20:44:27.613Z,99537.17
2018-09-09T20:47:02.342Z,99535.98
2018-09-09T20:49:36.979Z,99537.98
2018-09-09T20:52:11.885Z,99537.98
2018-09-09T20:54:46.661Z,99540.42
2018-09-09T20:57:21.177Z,99537.16
2018-09-09T20:59:55.821Z,99537.23
2018-09-09T21:02:30.292Z,99542.11
2018-09-09T21:05:04.876Z,99532.55
2018-09-09T21:07:39.468Z,99533.92
2018-09-09T21:10:14.092Z,99530.97
2018-09-09T21:12:48.700Z,99526.27
2018-09-09T21:15:23.490Z,99530.95
2018-09-09T21:17:58.189Z,99530.95
2018-09-09T21:20:32.748Z,99529.83
2018-09-09T21:23:07.248Z,99527.86
2018-09-09T21:25:41.788Z,99538.97
2018-09-09T21:28:16.392Z,99530.79
2018-09-09T21:30:51.093Z,99522.39
2018-09-09T21:33:25.713Z,99522.18
2018-09-09T21:36:00.314Z,99521.95
2018-09-09T21:38:34.925Z,99516.25
2018-09-09T21:41:09.437Z,99511.45
2018-09-09T21:43:44.348Z,99505.73
2018-09-09T21:46:19.021Z,99504.81
2018-09-09T21:48:53.561Z,99503.00
2018-09-09T21:51:28.194Z,99506.08
2018-09-09T21:54:02.616Z,99502.30
2018-09-09T21:56:37.112Z,99499.55
2018-09-09T21:59:11.732Z,99493.49
2018-09-09T22:01:51.940Z,99499.11
2018-09-09T22:04:26.505Z,99497.78
2018-09-09T22:07:01.365Z,99495.03
2018-09-09T22:09:36.221Z,99494.69
2018-09-09T22:12:11.507Z,99498.69
2018-09-09T22:14:46.056Z,99487.89
2018-09-09T22:17:20.763Z,99484.44
2018-09-09T22:19:55.377Z,99480.09
2018-09-09T22:22:29.849Z,99481.23
2018-09-09T22:25:04.452Z,99477.13
2018-09-09T22:27:39.006Z,99478.15
2018-09-09T22:30:13.645Z,99477.59
2018-09-09T22:32:48.192Z,99479.64
2018-09-09T22:35:22.801Z,99483.07
2018-09-09T22:37:57.403Z,99484.67
2018-09-09T22:40:31.878Z,99487.98
2018-09-09T22:43:06.472Z,99486.29
2018-09-09T22:45:41.834Z,99480.00
2018-09-09T22:48:16.709Z,99483.78
2018-09-09T22:50:51.385Z,99478.97
2018-09-09T22:53:26.013Z,99484.44
2018-09-09T22:56:00.844Z,99485.94
2018-09-09T22:58:35.465Z,99482.27
2018-09-09T23:01:09.938Z,99477.58
2018-09-09T23:03:44.488Z,99474.61
2018-09-09T23:06:18.984Z,99479.06
2018-09-09T23:08:53.504Z,99480.33
2018-09-09T23:11:28.068Z,99478.95
2018-09-09T23:14:02.789Z,99475.30
2018-09-09T23:16:37.531Z,99474.27
2018-09-09T23:19:12.241Z,99474.38
2018-09-09T23:21:46.756Z,99471.73
2018-09-09T23:24:21.358Z,99473.68
2018-09-09T23:26:55.864Z,99465.22
2018-09-09T23:29:30.380Z,99469.20
2018-09-09T23:32:05.048Z,99469.33
2018-09-09T23:34:39.678Z,99466.83
2018-09-09T23:37:14.364Z,99466.83
2018-09-09T23:39:48.980Z,99459.39
2018-09-09T23:42:23.630Z,99458.72
2018-09-09T23:44:58.203Z,99456.53
2018-09-09T23:47:32.760Z,99456.64
2018-09-09T23:50:07.648Z,99447.60
2018-09-09T23:52:42.393Z,99455.61
2018-09-09T23:55:17.029Z,99457.20
2018-09-09T23:57:51.776Z,99462.00
